createdAt,value
2023-04-18T00:02:19.226Z,2.10
2023-04-18T00:04:48.164Z,2.40
2023-04-18T00:07:18.788Z,2.10
2023-04-18T00:09:47.047Z,2.00
2023-04-18T00:12:15.817Z,2.10
2023-04-18T00:14:45.423Z,2.30
2023-04-18T00:17:14.749Z,1.90
2023-04-18T00:19:44.851Z,2.00
2023-04-18T00:22:13.650Z,2.10
2023-04-18T00:24:42.125Z,2.50
2023-04-18T00:27:10.704Z,2.30
2023-04-18T00:29:42.695Z,2.00
2023-04-18T00:32:12.989Z,2.50
2023-04-18T00:34:41.476Z,2.10
2023-04-18T00:37:10.882Z,2.40
2023-04-18T00:39:39.161Z,2.30
2023-04-18T00:42:07.635Z,2.20
2023-04-18T00:44:37.450Z,2.20
2023-04-18T00:47:08.190Z,2.20
2023-04-18T00:49:36.560Z,2.30
2023-04-18T00:52:06.476Z,2.30
2023-04-18T00:54:34.860Z,2.40
2023-04-18T00:57:03.849Z,2.10
2023-04-18T00:59:34.955Z,2.00
2023-04-18T01:02:04.656Z,2.00
2023-04-18T01:04:33.729Z,2.60
2023-04-18T01:07:03.869Z,2.10
2023-04-18T01:09:32.315Z,2.20
2023-04-18T01:12:02.006Z,2.50
2023-04-18T01:14:30.593Z,2.30
2023-04-18T01:16:59.176Z,2.30
2023-04-18T01:19:27.660Z,2.60
2023-04-18T01:21:56.550Z,2.20
2023-04-18T01:24:26.977Z,2.20
2023-04-18T01:26:55.253Z,2.90
2023-04-18T01:29:23.540Z,2.30
2023-04-18T01:31:51.903Z,2.50
2023-04-18T01:34:20.123Z,2.30
2023-04-18T01:36:48.672Z,2.20
2023-04-18T01:39:18.589Z,1.70
2023-04-18T01:41:46.975Z,2.40
2023-04-18T01:44:15.544Z,2.20
2023-04-18T01:46:44.078Z,2.90
2023-04-18T01:49:12.508Z,2.40
2023-04-18T01:51:42.427Z,2.70
2023-04-18T01:54:11.549Z,3.00
2023-04-18T01:56:41.437Z,2.70
2023-04-18T01:59:09.750Z,2.70
2023-04-18T02:01:38.809Z,2.30
2023-04-18T02:04:07.582Z,2.60
2023-04-18T02:06:37.313Z,2.50
2023-04-18T02:09:05.688Z,2.10
2023-04-18T02:11:33.868Z,2.30
2023-04-18T02:14:04.527Z,2.50
2023-04-18T02:16:34.638Z,2.60
2023-04-18T02:19:04.750Z,2.90
2023-04-18T02:21:33.230Z,2.60
2023-04-18T02:24:01.709Z,2.40
2023-04-18T02:26:30.086Z,2.60
2023-04-18T02:28:59.070Z,2.80
2023-04-18T02:31:27.512Z,2.90
2023-04-18T02:33:55.848Z,2.90
2023-04-18T02:36:26.292Z,2.70
2023-04-18T02:38:55.463Z,2.30
2023-04-18T02:41:23.739Z,2.60
2023-04-18T02:43:52.217Z,2.60
2023-04-18T02:46:20.937Z,2.60
2023-04-18T02:48:49.792Z,2.60
2023-04-18T02:51:20.347Z,2.90
2023-04-18T02:53:49.089Z,2.90
2023-04-18T02:56:17.902Z,2.80
2023-04-18T02:59:24.628Z,2.10
2023-04-18T03:02:15.310Z,2.80
2023-04-18T03:04:50.647Z,2.50
2023-04-18T03:07:19.512Z,2.90
2023-04-18T03:09:48.423Z,2.50
2023-04-18T03:12:25.089Z,2.30
2023-04-18T03:14:53.469Z,2.50
2023-04-18T03:17:22.234Z,2.60
2023-04-18T03:19:51.768Z,3.20
2023-04-18T03:22:21.357Z,3.10
2023-04-18T03:25:02.198Z,3.00
2023-04-18T03:27:52.016Z,2.60
2023-04-18T03:30:23.164Z,2.60
2023-04-18T03:32:56.267Z,2.80
2023-04-18T03:35:25.853Z,3.20
2023-04-18T03:37:54.130Z,2.70
2023-04-18T03:40:26.912Z,2.90
2023-04-18T03:42:59.859Z,2.40
2023-04-18T03:45:29.415Z,2.80
2023-04-18T03:47:57.837Z,3.40
2023-04-18T03:50:26.990Z,3.20
2023-04-18T03:52:56.385Z,3.40
2023-04-18T03:55:26.608Z,2.90
2023-04-18T03:57:55.811Z,2.40
2023-04-18T04:00:30.126Z,3.30
2023-04-18T04:03:07.186Z,2.90
2023-04-18T04:05:36.101Z,3.30
2023-04-18T04:08:05.025Z,3.20
2023-04-18T04:10:34.706Z,2.90
2023-04-18T04:13:03.187Z,3.30
2023-04-18T04:15:32.387Z,2.40
2023-04-18T04:18:06.551Z,2.50
2023-04-18T04:20:37.954Z,3.10
2023-04-18T04:23:15.466Z,2.90
2023-04-18T04:25:46.384Z,2.90
2023-04-18T04:28:26.433Z,3.00
2023-04-18T04:31:03.114Z,2.80
2023-04-18T04:33:34.358Z,3.10
2023-04-18T04:36:05.292Z,3.10
2023-04-18T04:38:38.612Z,2.80
2023-04-18T04:41:08.503Z,3.00
2023-04-18T04:43:41.484Z,2.80
2023-04-18T04:46:10.128Z,2.70
2023-04-18T04:48:38.348Z,3.10
2023-04-18T04:51:06.939Z,3.00
2023-04-18T04:53:35.822Z,2.80
2023-04-18T04:56:05.121Z,2.60
2023-04-18T04:58:35.044Z,2.60
2023-04-18T05:01:20.804Z,2.90
2023-04-18T05:03:51.871Z,2.60
2023-04-18T05:06:23.986Z,3.40
2023-04-18T05:08:52.421Z,2.90
2023-04-18T05:11:21.409Z,2.70
2023-04-18T05:13:49.686Z,3.20
2023-04-18T05:16:19.207Z,3.50
2023-04-18T05:18:47.983Z,3.20
2023-04-18T05:21:17.189Z,3.00
2023-04-18T05:23:46.581Z,2.60
2023-04-18T05:26:14.860Z,2.80
2023-04-18T05:28:43.689Z,2.80
2023-04-18T05:31:15.847Z,3.00
2023-04-18T05:33:44.213Z,2.80
2023-04-18T05:36:12.678Z,2.80
2023-04-18T05:38:42.488Z,2.90
2023-04-18T05:41:10.782Z,2.40
2023-04-18T05:43:41.818Z,2.90
2023-04-18T05:46:12.782Z,3.10
2023-04-18T05:48:41.435Z,2.60
2023-04-18T05:51:11.457Z,2.80
2023-04-18T05:53:39.790Z,2.90
2023-04-18T05:56:09.140Z,3.80
2023-04-18T05:58:37.668Z,2.70
2023-04-18T06:01:06.710Z,3.40
2023-04-18T06:03:36.212Z,2.40
2023-04-18T06:06:05.727Z,2.50
2023-04-18T06:08:35.853Z,2.60
2023-04-18T06:11:04.326Z,3.10
2023-04-18T06:13:35.675Z,3.20
2023-04-18T06:16:07.186Z,2.60
2023-04-18T06:18:36.008Z,2.80
2023-04-18T06:21:04.274Z,3.00
2023-04-18T06:23:34.601Z,2.90
2023-04-18T06:26:02.881Z,3.20
2023-04-18T06:28:31.261Z,2.70
2023-04-18T06:30:59.704Z,3.80
2023-04-18T06:33:31.250Z,4.70
2023-04-18T06:35:59.622Z,3.20
2023-04-18T06:38:28.206Z,2.70
2023-04-18T06:40:56.689Z,3.10
2023-04-18T06:43:36.484Z,3.50
2023-04-18T06:46:05.592Z,2.80
2023-04-18T06:48:34.177Z,2.80
2023-04-18T06:51:03.515Z,3.10
2023-04-18T06:53:32.917Z,3.40
2023-04-18T06:56:02.942Z,2.80
2023-04-18T06:58:31.423Z,3.00
2023-04-18T07:01:00.430Z,3.40
2023-04-18T07:03:30.730Z,2.70
2023-04-18T07:05:59.122Z,2.70
2023-04-18T07:08:27.906Z,2.70
2023-04-18T07:10:57.721Z,2.50
2023-04-18T07:13:26.107Z,2.80
2023-04-18T07:15:56.222Z,3.00
2023-04-18T07:18:36.665Z,3.00
2023-04-18T07:23:37.902Z,2.60
2023-04-18T07:26:06.279Z,2.70
2023-04-18T07:28:34.989Z,2.50
2023-04-18T07:31:04.932Z,2.50
2023-04-18T07:33:36.773Z,2.70
2023-04-18T07:36:06.848Z,3.00
2023-04-18T07:38:38.323Z,2.60
2023-04-18T07:41:06.599Z,2.80
2023-04-18T07:43:35.207Z,3.20
2023-04-18T07:46:03.378Z,3.10
2023-04-18T07:48:32.762Z,2.70
2023-04-18T07:51:01.792Z,2.70
2023-04-18T07:53:31.595Z,2.80
2023-04-18T07:55:59.742Z,2.70
2023-04-18T07:58:28.645Z,3.00
2023-04-18T08:00:57.019Z,2.90
2023-04-18T08:03:28.568Z,2.70
2023-04-18T08:05:57.870Z,2.40
2023-04-18T08:08:27.072Z,3.30
2023-04-18T08:10:55.344Z,2.90
2023-04-18T08:13:26.194Z,3.30
2023-04-18T08:15:56.303Z,3.80
2023-04-18T08:18:24.476Z,3.00
2023-04-18T08:20:52.829Z,2.60
2023-04-18T08:23:22.932Z,2.60
2023-04-18T08:25:52.275Z,2.80
2023-04-18T08:28:21.166Z,2.80
2023-04-18T08:30:52.540Z,2.80
2023-04-18T08:33:23.577Z,2.80
2023-04-18T08:35:52.905Z,2.90
2023-04-18T08:38:21.560Z,3.20
2023-04-18T08:40:50.026Z,2.60
2023-04-18T08:43:19.225Z,2.90
2023-04-18T08:45:48.389Z,3.00
2023-04-18T08:48:18.871Z,2.70
2023-04-18T08:50:48.901Z,2.90
2023-04-18T08:53:18.094Z,2.60
2023-04-18T08:55:47.954Z,2.80
2023-04-18T08:58:22.650Z,2.70
2023-04-18T09:00:52.653Z,2.90
2023-04-18T09:06:53.245Z,3.00
2023-04-18T09:09:27.623Z,3.10
2023-04-18T09:12:08.997Z,2.70
2023-04-18T09:14:38.497Z,2.90
2023-04-18T09:17:07.095Z,2.70
2023-04-18T09:19:36.068Z,2.90
2023-04-18T09:22:05.167Z,3.00
2023-04-18T09:24:34.666Z,2.50
2023-04-18T09:27:04.379Z,2.80
2023-04-18T09:32:25.807Z,2.80
2023-04-18T09:37:32.818Z,2.80
2023-04-18T09:40:01.324Z,1.90
2023-04-18T09:42:31.421Z,2.20
2023-04-18T09:45:06.247Z,2.20
2023-04-18T09:47:36.790Z,2.10
2023-04-18T09:50:06.927Z,2.00
2023-04-18T09:52:38.617Z,2.00
2023-04-18T09:55:09.947Z,1.80
2023-04-18T09:57:42.507Z,2.00
2023-04-18T10:00:18.194Z,1.80
2023-04-18T10:02:51.949Z,1.90
2023-04-18T10:05:22.161Z,1.60
2023-04-18T10:07:51.146Z,1.30
2023-04-18T10:10:19.529Z,1.50
2023-04-18T10:12:50.067Z,1.50
2023-04-18T10:15:18.749Z,1.70
2023-04-18T10:18:04.452Z,2.00
2023-04-18T10:20:36.205Z,1.60
2023-04-18T10:23:35.800Z,1.90
2023-04-18T10:26:09.003Z,1.70
2023-04-18T10:28:59.690Z,1.70
2023-04-18T10:31:30.168Z,1.70
2023-04-18T10:36:30.672Z,1.50
2023-04-18T10:39:04.388Z,1.40
2023-04-18T10:41:34.551Z,1.10
2023-04-18T10:44:09.156Z,1.20
2023-04-18T10:46:40.223Z,1.20
2023-04-18T10:49:24.560Z,1.30
2023-04-18T10:52:00.759Z,1.50
2023-04-18T10:54:37.409Z,1.50
2023-04-18T10:57:07.806Z,1.30
2023-04-18T10:59:43.957Z,1.10
2023-04-18T11:02:26.471Z,1.30
2023-04-18T11:04:57.518Z,1.60
2023-04-18T11:07:46.219Z,1.70
2023-04-18T11:10:23.967Z,1.50
2023-04-18T11:12:54.376Z,1.30
2023-04-18T11:15:23.721Z,1.60
2023-04-18T11:18:05.411Z,1.50
2023-04-18T11:20:41.151Z,1.90
2023-04-18T11:23:18.429Z,1.60
2023-04-18T11:25:47.447Z,2.50
2023-04-18T11:28:20.270Z,3.20
2023-04-18T11:30:48.612Z,1.70
2023-04-18T11:33:17.240Z,1.80
2023-04-18T11:35:47.539Z,1.40
2023-04-18T11:38:17.123Z,1.60
2023-04-18T11:40:49.494Z,1.70
2023-04-18T11:43:25.862Z,1.40
2023-04-18T11:46:00.220Z,1.70
2023-04-18T11:48:44.030Z,2.00
2023-04-18T11:51:31.812Z,1.70
2023-04-18T11:54:03.133Z,1.50
2023-04-18T11:56:34.626Z,1.30
2023-04-18T11:59:10.228Z,1.80
2023-04-18T12:01:38.722Z,1.70
2023-04-18T12:04:08.603Z,2.00
2023-04-18T12:06:51.141Z,1.60
2023-04-18T12:09:21.458Z,1.70
2023-04-18T12:12:01.168Z,1.80
2023-04-18T12:14:31.634Z,2.00
2023-04-18T12:16:59.914Z,1.70
2023-04-18T12:19:29.314Z,1.60
2023-04-18T12:22:01.014Z,1.80
2023-04-18T12:24:31.100Z,1.70
2023-04-18T12:26:59.584Z,1.70
2023-04-18T12:29:28.766Z,1.70
2023-04-18T12:31:57.292Z,1.30
2023-04-18T12:34:26.448Z,1.70
2023-04-18T12:36:55.046Z,1.30
2023-04-18T12:39:23.318Z,1.70
2023-04-18T12:41:51.701Z,1.40
2023-04-18T12:44:21.500Z,2.30
2023-04-18T12:46:51.536Z,1.70
2023-04-18T12:49:20.322Z,2.60
2023-04-18T12:51:48.378Z,2.40
2023-04-18T12:54:16.770Z,1.80
2023-04-18T12:56:46.371Z,1.80
2023-04-18T12:59:14.924Z,1.60
2023-04-18T13:01:44.420Z,1.60
2023-04-18T13:04:13.666Z,1.70
2023-04-18T13:06:42.767Z,1.60
2023-04-18T13:09:13.274Z,1.50
2023-04-18T13:11:43.819Z,1.20
2023-04-18T13:14:12.328Z,1.20
2023-04-18T13:16:43.633Z,1.10
2023-04-18T13:19:13.996Z,1.50
2023-04-18T13:21:42.451Z,1.70
2023-04-18T13:24:11.826Z,1.20
2023-04-18T13:26:40.747Z,1.30
2023-04-18T13:29:09.022Z,1.10
2023-04-18T13:31:38.661Z,1.10
2023-04-18T13:34:07.519Z,1.50
2023-04-18T13:36:36.718Z,1.20
2023-04-18T13:39:09.913Z,1.40
2023-04-18T13:41:43.319Z,1.20
2023-04-18T13:44:14.468Z,1.30
2023-04-18T13:46:42.728Z,1.20
2023-04-18T13:49:11.376Z,1.20
2023-04-18T13:51:39.996Z,1.20
2023-04-18T13:54:09.194Z,1.20
2023-04-18T13:56:39.342Z,1.20
2023-04-18T13:59:08.104Z,1.90
2023-04-18T14:01:38.527Z,1.40
2023-04-18T14:04:08.192Z,1.40
2023-04-18T14:06:36.830Z,1.20
2023-04-18T14:09:07.677Z,1.70
2023-04-18T14:11:36.165Z,1.60
2023-04-18T14:14:04.406Z,1.50
2023-04-18T14:16:35.210Z,1.20
2023-04-18T14:19:04.290Z,1.00
2023-04-18T14:21:32.824Z,1.30
2023-04-18T14:24:01.789Z,1.30
2023-04-18T14:26:31.135Z,1.10
2023-04-18T14:28:59.256Z,1.60
2023-04-18T14:31:28.529Z,1.30
2023-04-18T14:33:58.888Z,1.40
2023-04-18T14:36:28.849Z,1.60
2023-04-18T14:38:57.808Z,1.50
2023-04-18T14:41:26.557Z,1.50
2023-04-18T14:43:55.031Z,1.40
2023-04-18T14:46:23.512Z,1.60
2023-04-18T14:48:51.967Z,1.70
2023-04-18T14:51:21.469Z,1.20
2023-04-18T14:53:56.936Z,1.00
2023-04-18T14:56:27.140Z,1.00
2023-04-18T14:58:57.056Z,1.30
2023-04-18T15:01:25.599Z,1.30
2023-04-18T15:03:55.498Z,1.20
2023-04-18T15:06:24.725Z,0.80
2023-04-18T15:08:53.236Z,0.90
2023-04-18T15:11:22.841Z,1.00
2023-04-18T15:13:52.160Z,1.20
2023-04-18T15:16:24.670Z,0.90
2023-04-18T15:19:00.575Z,0.80
2023-04-18T15:21:33.258Z,1.40
2023-04-18T15:24:04.297Z,1.50
2023-04-18T15:26:36.673Z,1.20
2023-04-18T15:29:04.953Z,1.00
2023-04-18T15:31:33.875Z,1.10
2023-04-18T15:34:03.056Z,0.90
2023-04-18T15:36:32.342Z,1.20
2023-04-18T15:39:01.950Z,0.90
2023-04-18T15:41:35.597Z,1.00
2023-04-18T15:44:06.062Z,0.90
2023-04-18T15:46:36.759Z,1.20
2023-04-18T15:49:06.846Z,1.10
2023-04-18T15:51:35.519Z,1.20
2023-04-18T15:54:05.438Z,0.90
2023-04-18T15:56:37.022Z,1.30
2023-04-18T16:01:37.265Z,1.40
2023-04-18T16:04:05.943Z,1.40
2023-04-18T16:06:35.936Z,1.50
2023-04-18T16:09:07.176Z,1.20
2023-04-18T16:11:35.770Z,1.20
2023-04-18T16:14:05.539Z,1.20
2023-04-18T16:16:35.590Z,5.40
2023-04-18T16:19:16.500Z,1.70
2023-04-18T16:21:47.260Z,1.30
2023-04-18T16:24:17.645Z,1.30
2023-04-18T16:26:45.895Z,1.30
2023-04-18T16:29:14.484Z,1.10
2023-04-18T16:31:43.424Z,1.50
2023-04-18T16:34:16.168Z,1.00
2023-04-18T16:36:45.353Z,1.50
2023-04-18T16:39:13.840Z,1.30
2023-04-18T16:41:43.345Z,1.00
2023-04-18T16:44:12.454Z,1.30
2023-04-18T16:46:41.204Z,1.60
2023-04-18T16:49:10.027Z,1.80
2023-04-18T16:51:42.185Z,1.80
2023-04-18T16:54:11.284Z,1.80
2023-04-18T16:56:39.970Z,2.30
2023-04-18T16:59:12.399Z,1.60
2023-04-18T17:01:41.199Z,2.30
2023-04-18T17:04:19.484Z,2.50
2023-04-18T17:06:51.462Z,2.20
2023-04-18T17:09:20.705Z,2.10
2023-04-18T17:11:49.720Z,2.10
2023-04-18T17:14:18.666Z,2.20
2023-04-18T17:16:47.131Z,2.20
2023-04-18T17:19:17.046Z,1.80
2023-04-18T17:21:45.577Z,1.70
2023-04-18T17:24:17.101Z,1.80
2023-04-18T17:26:46.126Z,1.40
2023-04-18T17:29:14.549Z,2.60
2023-04-18T17:31:44.050Z,2.70
2023-04-18T17:34:13.101Z,2.60
2023-04-18T17:36:42.194Z,2.40
2023-04-18T17:39:11.294Z,1.80
2023-04-18T17:41:41.518Z,1.80
2023-04-18T17:44:10.724Z,2.30
2023-04-18T17:46:39.397Z,2.10
2023-04-18T17:49:10.028Z,2.10
2023-04-18T17:51:39.226Z,1.80
2023-04-18T17:54:08.385Z,1.50
2023-04-18T17:56:37.726Z,1.20
2023-04-18T17:59:08.542Z,1.80
2023-04-18T18:01:38.005Z,2.90
2023-04-18T18:04:07.195Z,2.20
2023-04-18T18:06:35.956Z,2.20
2023-04-18T18:09:04.277Z,2.00
2023-04-18T18:11:35.478Z,2.10
2023-04-18T18:14:03.966Z,2.40
2023-04-18T18:16:34.674Z,2.30
2023-04-18T18:19:06.674Z,1.60
2023-04-18T18:21:34.961Z,2.10
2023-04-18T18:24:03.525Z,2.00
2023-04-18T18:26:39.273Z,2.20
2023-04-18T18:29:11.441Z,2.10
2023-04-18T18:31:44.038Z,2.00
2023-04-18T18:34:12.497Z,1.80
2023-04-18T18:36:40.881Z,1.80
2023-04-18T18:39:11.139Z,2.20
2023-04-18T18:41:41.792Z,2.00
2023-04-18T18:44:10.144Z,1.70
2023-04-18T18:46:39.784Z,1.70
2023-04-18T18:49:09.633Z,1.90
2023-04-18T18:51:41.210Z,2.30
2023-04-18T18:54:10.806Z,2.70
2023-04-18T18:56:40.399Z,3.70
2023-04-18T18:59:13.569Z,3.50
2023-04-18T19:01:41.927Z,3.80
2023-04-18T19:04:11.004Z,3.10
2023-04-18T19:06:41.715Z,2.30
2023-04-18T19:09:11.004Z,1.60
2023-04-18T19:11:39.384Z,1.80
2023-04-18T19:14:08.989Z,1.80
2023-04-18T19:16:37.404Z,1.80
2023-04-18T19:19:05.752Z,1.60
2023-04-18T19:21:35.980Z,1.60
2023-04-18T19:24:04.592Z,1.90
2023-04-18T19:26:33.042Z,1.60
2023-04-18T19:29:01.935Z,1.60
2023-04-18T19:31:35.694Z,1.20
2023-04-18T19:34:05.037Z,1.60
2023-04-18T19:36:33.421Z,1.80
2023-04-18T19:39:02.305Z,2.70
2023-04-18T19:44:02.655Z,1.80
2023-04-18T19:46:31.731Z,1.90
2023-04-18T19:49:03.607Z,1.60
2023-04-18T19:51:31.780Z,2.10
2023-04-18T19:54:00.260Z,2.00
2023-04-18T19:56:30.688Z,1.80
2023-04-18T19:58:59.203Z,1.80
2023-04-18T20:01:27.586Z,1.60
2023-04-18T20:03:58.896Z,2.00
2023-04-18T20:06:27.843Z,2.10
2023-04-18T20:08:56.167Z,2.20
2023-04-18T20:11:24.650Z,1.90
2023-04-18T20:13:55.590Z,2.80
2023-04-18T20:16:25.150Z,2.60
2023-04-18T20:18:55.014Z,2.30
2023-04-18T20:21:24.824Z,2.10
2023-04-18T20:23:56.581Z,2.50
2023-04-18T20:26:29.061Z,2.80
2023-04-18T20:28:57.542Z,2.50
2023-04-18T20:31:26.017Z,3.10
2023-04-18T20:33:54.334Z,3.50
2023-04-18T20:36:23.911Z,2.70
2023-04-18T20:38:52.597Z,2.80
2023-04-18T20:41:24.277Z,3.00
2023-04-18T20:43:54.067Z,3.10
2023-04-18T20:46:22.358Z,3.30
2023-04-18T20:48:51.842Z,3.10
2023-04-18T20:51:20.019Z,3.10
2023-04-18T20:53:48.407Z,3.00
2023-04-18T20:56:16.676Z,3.30
2023-04-18T20:58:45.976Z,3.20
2023-04-18T21:01:14.363Z,3.50
2023-04-18T21:03:44.335Z,3.10
2023-04-18T21:06:14.435Z,2.80
2023-04-18T21:08:44.148Z,2.90
2023-04-18T21:11:12.547Z,2.80
2023-04-18T21:13:41.218Z,2.70
2023-04-18T21:16:10.509Z,3.20
2023-04-18T21:18:40.324Z,2.80
2023-04-18T21:21:09.935Z,2.50
2023-04-18T21:25:32.104Z,2.30
2023-04-18T21:28:00.519Z,2.30
2023-04-18T21:30:29.180Z,2.60
2023-04-18T21:32:57.707Z,2.70
2023-04-18T21:35:30.057Z,2.80
2023-04-18T21:37:58.733Z,2.90
2023-04-18T21:40:31.383Z,3.00
2023-04-18T21:43:01.753Z,2.80
2023-04-18T21:45:33.953Z,2.10
2023-04-18T21:48:02.904Z,2.50
2023-04-18T21:50:31.417Z,2.50
2023-04-18T21:52:59.695Z,2.70
2023-04-18T21:55:28.261Z,2.50
2023-04-18T21:57:56.644Z,2.80
2023-04-18T22:00:25.847Z,2.60
2023-04-18T22:02:54.343Z,2.80
2023-04-18T22:05:22.852Z,2.80
2023-04-18T22:07:58.143Z,2.80
2023-04-18T22:10:27.217Z,2.30
2023-04-18T22:13:00.383Z,2.40
2023-04-18T22:15:30.745Z,2.40
2023-04-18T22:17:59.499Z,2.40
2023-04-18T22:20:29.704Z,2.50
2023-04-18T22:22:59.155Z,3.10
2023-04-18T22:25:27.341Z,3.20
2023-04-18T22:27:57.301Z,2.80
2023-04-18T22:30:27.011Z,2.70
2023-04-18T22:32:56.201Z,2.70
2023-04-18T22:35:25.078Z,3.10
2023-04-18T22:37:53.387Z,3.60
2023-04-18T22:40:22.040Z,2.80
2023-04-18T22:42:52.199Z,2.70
2023-04-18T22:45:21.300Z,2.30
2023-04-18T22:47:51.588Z,3.00
2023-04-18T22:50:21.217Z,3.00
2023-04-18T22:52:50.830Z,3.10
2023-04-18T22:55:20.228Z,2.70
2023-04-18T22:57:49.604Z,2.10
2023-04-18T23:00:18.203Z,2.80
2023-04-18T23:02:48.064Z,2.10
2023-04-18T23:05:16.576Z,2.40
2023-04-18T23:07:45.868Z,2.00
2023-04-18T23:10:15.068Z,2.20
2023-04-18T23:12:44.063Z,2.00
2023-04-18T23:15:12.901Z,2.00
2023-04-18T23:17:42.673Z,1.70
2023-04-18T23:20:12.630Z,2.00
2023-04-18T23:22:41.152Z,2.30
2023-04-18T23:25:10.560Z,2.00
2023-04-18T23:27:40.382Z,1.90
2023-04-18T23:30:09.461Z,1.80
2023-04-18T23:32:39.285Z,2.10
2023-04-18T23:35:10.670Z,2.20
2023-04-18T23:37:38.990Z,1.70
2023-04-18T23:40:09.932Z,1.90
2023-04-18T23:42:39.462Z,1.80
2023-04-18T23:45:08.356Z,1.40
2023-04-18T23:47:38.238Z,1.80
2023-04-18T23:50:09.652Z,1.70
2023-04-18T23:52:39.691Z,1.80
2023-04-18T23:55:08.694Z,1.70
2023-04-18T23:57:37.984Z,2.00
